Latest Weather Observations for Melbourne Airport

IDV60901

Issued at 1:31 pm EDT Friday 6 March 2015 (issued every 10 minutes, with the page automatically refreshed every 10 minutes)

About weather observations | Map of Melbourne area stations | Latest observations for Melbourne area | Other Formats
Station Details ID: 086282 Name: MELBOURNE AIRPORT Lat: -37.67 Lon: 144.83 Height: 113.4 m
Data from the previous 72 hours. | See also: Recent months at Melbourne Airport
Date/Time
EDT
Tmp

°C
App
Tmp
°C
Dew
Point
°C
Rel
Hum
%
Delta-T

°C
Wind Press
QNH
hPa
Press
MSL
hPa
Rain
since
9 am
mm
Dir
 
Spd
km/h
Gust
km/h
Spd
kts
Gust
kts
06/01:00pm 19.6 13.4 11.5 59 4.5 WSW 35 50 19 27 1011.3 1011.0 0.0
06/12:30pm 19.3 12.7 11.5 60 4.3 SW 37 46 20 25 1011.4 1011.1 0.0
06/12:00pm 18.1 11.6 11.8 66 3.5 WSW 37 52 20 28 1011.8 1011.5 0.0
06/11:41am 17.6 11.8 11.6 68 3.3 WSW 33 52 18 28 1011.9 1011.6 0.0
06/11:30am 17.5 12.3 11.7 69 3.2 WSW 30 39 16 21 1011.9 1011.6 0.0
06/11:00am 17.0 10.8 11.3 69 3.1 WSW 35 48 19 26 1011.8 1011.5 0.0
06/10:30am 16.9 10.3 11.2 69 3.1 WSW 37 48 20 26 1011.6 1011.3 0.0
06/10:00am 16.4 9.3 10.8 69 3.0 WSW 39 48 21 26 1011.6 1011.3 0.0
06/09:46am 16.2 9.4 10.6 69 3.0 WSW 37 56 20 30 1011.5 1011.2 0.0
06/09:30am 15.9 9.4 10.4 70 2.9 WSW 35 50 19 27 1011.5 1011.2 0.0
06/09:00am 15.2 9.5 9.9 70 2.8 W 30 39 16 21 1011.5 1011.2 0.0
06/08:30am 14.8 9.0 9.4 70 2.8 W 30 41 16 22 1011.3 1011.0 0.0
06/08:00am 14.8 7.9 8.7 67 3.1 WSW 35 46 19 25 1011.1 1010.8 0.0
06/07:30am 14.7 9.0 8.2 65 3.3 WSW 28 37 15 20 1010.8 1010.5 0.0
06/07:00am 14.4 9.0 7.8 64 3.3 W 26 33 14 18 1010.6 1010.3 0.0
06/06:30am 14.1 8.2 7.4 64 3.3 W 28 37 15 20 1010.7 1010.4 0.0
06/05:30am 13.9 8.3 7.0 63 3.4 W 26 35 14 19 1011.2 1010.9 0.0
06/05:00am 13.9 8.2 6.9 62 3.4 W 26 35 14 19 1011.4 1011.1 0.0
06/04:30am 13.6 7.2 6.8 63 3.3 W 30 37 16 20 1011.6 1011.3 0.0
06/04:00am 13.7 7.6 6.5 62 3.5 W 28 32 15 17 1012.2 1011.9 0.0
06/03:30am 13.5 7.7 6.2 61 3.5 W 26 30 14 16 1012.6 1012.3 0.0
06/03:00am 13.5 7.6 6.0 60 3.6 W 26 32 14 17 1012.9 1012.6 0.0
06/02:30am 12.6 7.8 5.8 63 3.2 W 20 28 11 15 1013.4 1013.1 0.0
06/02:00am 12.5 6.9 5.5 62 3.3 W 24 30 13 16 1013.6 1013.3 0.0
06/01:30am 12.1 7.2 5.0 62 3.3 W 20 28 11 15 1014.0 1013.7 0.0
06/01:00am 12.6 7.6 4.8 59 3.6 W 20 26 11 14 1014.3 1014.0 0.0
06/12:30am 12.5 7.1 4.7 59 3.6 W 22 28 12 15 1014.2 1013.9 0.0
 
Date/Time
EDT
Tmp

°C
App
Tmp
°C
Dew
Point
°C
Rel
Hum
%
Delta-T

°C
Wind Press
QNH
hPa
Press
MSL
hPa
Rain
since
9 am
mm
Dir
 
Spd
km/h
Gust
km/h
Spd
kts
Gust
kts
05/11:30pm 12.8 8.7 4.5 57 3.8 W 15 22 8 12 1015.0 1014.7 0.0
05/10:30pm 13.4 8.9 4.3 54 4.2 WSW 17 26 9 14 1015.5 1015.2 0.0
05/10:00pm 13.4 9.6 3.7 52 4.4 W 13 17 7 9 1015.7 1015.4 0.0
05/09:30pm 13.7 9.5 3.8 51 4.5 WSW 15 22 8 12 1015.8 1015.5 0.0
05/09:00pm 14.2 9.2 3.4 48 4.9 WSW 19 26 10 14 1015.5 1015.2 0.0
05/08:30pm 14.8 8.5 4.0 48 5.0 SW 26 33 14 18 1015.4 1015.1 0.0
05/08:00pm 15.5 9.8 2.7 42 5.8 WSW 22 33 12 18 1015.5 1015.2 0.0
05/07:30pm 16.1 9.1 1.7 38 6.4 SW 28 41 15 22 1015.5 1015.2 0.0
05/07:00pm 16.8 9.4 1.9 36 6.7 SW 30 41 16 22 1015.6 1015.3 0.0
05/06:06pm 18.5 12.2 1.4 31 7.7 SSW 24 50 13 27 1015.4 1015.1 0.0
05/05:30pm 19.0 12.9 2.6 33 7.6 SSW 24 32 13 17 1015.4 1015.1 0.0
05/05:00pm 18.9 14.5 2.5 33 7.6 SSW 15 32 8 17 1015.7 1015.4 0.0
05/04:30pm 18.1 13.3 5.4 43 6.2 SSE 20 32 11 17 1015.7 1015.4 0.0
05/04:00pm 18.6 13.1 4.1 38 6.9 SSE 22 33 12 18 1015.9 1015.6 0.0
05/03:30pm 18.5 12.5 3.4 36 7.1 SSE 24 33 13 18 1016.3 1016.1 0.0
05/03:00pm 19.2 14.2 4.5 38 7.1 S 20 33 11 18 1016.5 1016.3 0.0
05/02:30pm 18.2 12.2 3.5 37 6.9 S 24 35 13 19 1016.8 1016.6 0.0
05/02:00pm 17.2 11.5 3.1 39 6.5 S 22 37 12 20 1017.1 1016.9 0.0
05/01:30pm 17.3 10.9 3.0 38 6.6 SSW 26 37 14 20 1017.4 1017.2 0.0
05/01:00pm 17.1 9.7 2.0 36 6.8 S 30 43 16 23 1017.7 1017.5 0.0
05/12:30pm 16.6 9.3 2.2 38 6.5 SSW 30 39 16 21 1018.1 1017.8 0.0
05/12:00pm 16.4 9.2 2.8 40 6.2 SSW 30 41 16 22 1018.2 1017.9 0.0
05/11:30am 16.0 7.1 0.9 36 6.6 SSW 37 52 20 28 1018.2 1017.9 0.0
05/11:19am 15.9 7.0 0.7 35 6.6 SW 37 56 20 30 1018.1 1017.8 0.0
05/11:00am 16.5 8.3 2.9 40 6.2 SSW 35 48 19 26 1018.2 1017.9 0.0
05/10:51am 15.9 6.3 1.4 37 6.4 SSW 41 59 22 32 1017.9 1017.7 0.0
05/10:30am 15.3 5.5 2.0 40 5.9 SW 43 56 23 30 1017.5 1017.3 0.0
05/10:00am 14.8 6.5 1.9 41 5.7 SW 35 48 19 26 1017.3 1017.1 0.0
05/09:46am 14.4 5.6 1.6 42 5.6 SW 37 56 20 30 1017.1 1016.9 0.0
05/09:30am 13.9 6.7 3.0 47 4.9 SW 30 41 16 22 1017.0 1016.8 0.0
05/09:00am 13.1 6.8 3.6 52 4.3 SW 26 35 14 19 1016.7 1016.5 0.2
05/08:30am 11.8 6.7 4.0 59 3.5 WSW 20 32 11 17 1016.3 1016.1 0.2
05/08:00am 10.4 5.9 4.1 65 2.8 WSW 17 24 9 13 1015.8 1015.5 0.2
05/07:30am 9.3 5.2 4.1 70 2.3 WSW 15 19 8 10 1015.2 1014.9 0.2
05/07:00am 9.6 5.0 3.9 67 2.5 WSW 17 20 9 11 1014.9 1014.6 0.2
05/06:30am 10.4 4.4 3.3 61 3.1 SW 24 35 13 19 1014.7 1014.4 0.2
05/06:00am 10.7 4.5 4.2 64 2.9 SW 26 33 14 18 1014.8 1014.5 0.2
05/05:30am 11.3 4.0 4.7 64 3.0 WSW 32 39 17 21 1014.1 1013.8 0.2
05/05:00am 11.5 4.5 6.0 69 2.6 WSW 32 43 17 23 1013.6 1013.3 0.2
05/04:30am 12.2 4.4 6.8 69 2.6 WSW 37 54 20 29 1013.3 1013.0 0.2
05/04:25am 12.2 3.2 6.6 68 2.7 SW 43 61 23 33 1013.1 1012.8 0.2
05/04:00am 12.4 4.1 9.5 82 1.5 SW 43 59 23 32 1012.6 1012.3 0.0
05/03:30am 14.0 7.1 10.2 78 2.0 WSW 37 63 20 34 1011.7 1011.4 0.0
05/03:00am 14.1 7.0 10.9 81 1.7 WSW 39 50 21 27 1011.2 1010.9 0.0
05/02:39am 15.3 9.0 11.2 76 2.2 WSW 35 57 19 31 1011.0 1010.7 0.0
05/02:30am 16.1 9.7 10.7 70 2.9 W 35 48 19 26 1010.6 1010.3 0.0
05/02:00am 15.7 8.0 11.5 76 2.3 W 43 57 23 31 1010.7 1010.4 0.0
05/01:54am 16.6 9.5 10.8 68 3.1 W 39 57 21 31 1010.7 1010.4 0.0
05/01:30am 17.5 11.4 8.4 55 4.7 W 30 43 16 23 1010.4 1010.1 0.0
05/01:00am 16.7 12.8 8.6 59 4.2 NW 19 28 10 15 1010.1 1009.8 0.0
05/12:30am 17.6 11.6 8.5 55 4.7 W 30 41 16 22 1010.5 1010.2 0.0
05/12:00am 17.8 13.9 8.5 54 4.8 W 19 26 10 14 1010.4 1010.1 0.0
 
Date/Time
EDT
Tmp

°C
App
Tmp
°C
Dew
Point
°C
Rel
Hum
%
Delta-T

°C
Wind Press
QNH
hPa
Press
MSL
hPa
Rain
since
9 am
mm
Dir
 
Spd
km/h
Gust
km/h
Spd
kts
Gust
kts
04/11:30pm 17.9 13.4 8.4 53 4.9 W 22 28 12 15 1010.1 1009.8 0.0
04/11:00pm 18.0 13.2 8.8 55 4.8 W 24 30 13 16 1010.1 1009.8 0.0
04/10:30pm 18.7 13.8 8.5 51 5.3 W 24 32 13 17 1010.3 1010.0 0.0
04/10:00pm 19.0 13.7 8.5 50 5.5 W 26 33 14 18 1010.2 1009.9 0.0
04/09:30pm 19.4 14.8 8.3 48 5.8 WSW 22 28 12 15 1010.2 1009.9 0.0
04/09:00pm 19.4 15.9 8.8 50 5.6 WSW 17 20 9 11 1009.9 1009.6 0.0
04/08:30pm 20.0 16.9 8.8 48 5.9 WSW 15 19 8 10 1009.6 1009.3 0.0
04/08:00pm 20.9 16.9 8.4 44 6.6 SW 19 28 10 15 1009.7 1009.4 0.0
04/07:30pm 22.2 17.9 7.7 39 7.6 WSW 20 30 11 16 1009.8 1009.5 0.0
04/07:00pm 23.4 17.5 7.7 36 8.3 WSW 28 35 15 19 1009.9 1009.6 0.0
04/06:30pm 24.0 18.4 7.0 33 8.9 WSW 26 37 14 20 1010.0 1009.7 0.0
04/06:00pm 24.2 18.7 7.6 34 8.8 WSW 26 33 14 18 1010.2 1009.9 0.0
04/05:30pm 24.7 20.1 8.1 34 8.9 SW 22 30 12 16 1010.4 1010.1 0.0
04/05:00pm 24.2 20.0 7.6 34 8.8 WSW 19 32 10 17 1010.5 1010.2 0.0
04/04:30pm 24.5 20.5 8.3 35 8.7 WSW 19 30 10 16 1010.7 1010.4 0.0
04/04:00pm 24.1 20.5 8.5 37 8.4 WSW 17 28 9 15 1011.1 1010.8 0.0
04/03:30pm 22.8 19.9 8.3 39 7.7 WSW 13 22 7 12 1011.6 1011.3 0.0
04/03:00pm 22.8 19.8 7.5 37 8.0 WSW 13 26 7 14 1012.3 1012.0 0.0
04/02:30pm 22.1 19.7 8.6 42 7.2 SSW 11 20 6 11 1012.8 1012.5 0.0
04/02:00pm 21.4 17.3 7.8 41 7.1 SW 19 41 10 22 1013.2 1012.9 0.0
04/01:30pm 21.3 17.5 7.7 41 7.1 WSW 17 28 9 15 1013.7 1013.4 0.0
04/01:00pm 20.2 17.5 7.4 43 6.6 WNW 11 19 6 10 1014.2 1013.9 0.0
04/12:30pm 20.3 16.8 7.2 42 6.7 SW 15 28 8 15 1014.9 1014.6 0.0
04/12:00pm 19.7 15.5 7.4 45 6.3 SW 19 30 10 16 1015.4 1015.1 0.0
04/11:30am 18.7 14.8 8.5 51 5.3 SW 19 30 10 16 1015.6 1015.3 0.0
04/11:00am 18.0 14.1 8.5 53 4.9 SW 19 30 10 16 1015.7 1015.4 0.0
04/10:30am 17.8 13.8 8.3 53 4.9 SW 19 28 10 15 1015.7 1015.4 0.0
04/10:00am 17.3 13.8 8.8 57 4.4 WSW 17 24 9 13 1015.7 1015.4 0.0
04/09:30am 16.6 13.5 8.9 60 4.0 WSW 15 24 8 13 1015.8 1015.5 0.0
04/09:00am 15.8 12.6 9.9 68 3.1 W 17 20 9 11 1015.9 1015.6 0.0
04/08:30am 14.9 12.8 11.0 77 2.1 W 13 17 7 9 1015.8 1015.5 0.0
04/08:00am 14.1 12.5 11.5 84 1.4 W 11 13 6 7 1015.6 1015.3 0.0
04/07:30am 14.1 12.9 11.7 85 1.3 WSW 9 11 5 6 1015.2 1014.9 0.0
04/07:08am 13.4 12.7 11.9 91 0.8 WSW 7 9 4 5 1015.1 1014.8 0.0
04/07:00am 13.5 13.7 11.8 89 0.9 NNW 2 7 1 4 1014.9 1014.6 0.0
04/06:30am 13.7 14.2 11.7 88 1.1 CALM 0 0 0 0 1014.9 1014.6 0.0
04/06:00am 13.3 13.7 11.2 87 1.1 CALM 0 0 0 0 1015.0 1014.7 0.0
04/05:30am 14.1 13.9 11.9 86 1.2 SW 4 6 2 3 1015.1 1014.8 0.0
04/05:00am 14.2 14.1 12.0 87 1.2 SW 4 6 2 3 1015.0 1014.7 0.0
04/04:30am 14.4 13.3 11.8 84 1.4 WSW 9 9 5 5 1015.0 1014.7 0.0
04/04:00am 14.4 13.7 12.0 85 1.3 WSW 7 9 4 5 1015.1 1014.8 0.0
04/03:30am 14.4 13.7 12.0 85 1.3 WSW 7 9 4 5 1015.2 1014.9 0.0
04/03:00am 14.5 13.4 11.9 84 1.4 W 9 11 5 6 1015.5 1015.2 0.0
04/02:30am 14.6 13.5 11.8 83 1.5 W 9 11 5 6 1016.0 1015.7 0.0
04/02:00am 14.5 13.7 11.7 83 1.5 WNW 7 9 4 5 1016.2 1016.0 0.0
04/01:30am 14.3 14.5 11.7 84 1.4 W 2 7 1 4 1016.2 1016.0 0.0
04/01:00am 14.0 12.8 11.6 85 1.3 W 9 9 5 5 1016.3 1016.1 0.0
04/12:30am 13.6 12.4 11.5 87 1.1 W 9 11 5 6 1016.6 1016.4 0.0
04/12:00am 13.3 12.0 11.2 87 1.1 W 9 11 5 6 1016.7 1016.5 0.0
 
Date/Time
EDT
Tmp

°C
App
Tmp
°C
Dew
Point
°C
Rel
Hum
%
Delta-T

°C
Wind Press
QNH
hPa
Press
MSL
hPa
Rain
since
9 am
mm
Dir
 
Spd
km/h
Gust
km/h
Spd
kts
Gust
kts
03/11:30pm 13.3 11.6 11.2 87 1.1 W 11 13 6 7 1016.9 1016.7 0.0
03/11:00pm 14.5 13.3 11.5 82 1.6 SW 9 11 5 6 1017.1 1016.9 0.0
03/10:30pm 15.0 13.8 11.7 80 1.8 SSW 9 11 5 6 1017.1 1016.9 0.0
03/10:00pm 15.6 14.4 11.7 77 2.1 SSW 9 13 5 7 1017.1 1016.9 0.0
03/09:30pm 16.3 14.3 11.5 73 2.6 SSW 13 19 7 10 1016.7 1016.5 0.0
03/09:00pm 16.9 14.0 11.0 68 3.2 SSW 17 20 9 11 1016.5 1016.3 0.0
03/08:30pm 17.3 14.6 10.4 64 3.7 S 15 24 8 13 1016.1 1015.8 0.0
03/08:00pm 18.1 15.0 10.3 60 4.2 S 17 19 9 10 1015.6 1015.3 0.0
03/07:30pm 19.5 15.6 8.6 49 5.7 S 19 24 10 13 1015.4 1015.1 0.0
03/07:00pm 20.6 16.9 9.4 48 6.0 S 19 24 10 13 1015.2 1014.9 0.0
03/06:30pm 21.2 17.4 9.0 45 6.5 S 19 26 10 14 1015.1 1014.8 0.0
03/06:00pm 22.1 18.4 9.3 44 6.9 SE 19 26 10 14 1014.9 1014.6 0.0
03/05:30pm 21.6 17.8 9.1 44 6.7 SSE 19 28 10 15 1015.0 1014.7 0.0
03/05:00pm 22.6 18.7 9.5 43 7.1 SSE 20 30 11 16 1015.1 1014.8 0.0
03/04:30pm 22.4 19.3 9.0 42 7.2 SE 15 28 8 15 1015.2 1014.9 0.0
03/04:00pm 22.4 19.7 10.2 46 6.7 SSE 15 20 8 11 1015.4 1015.1 0.0
03/03:30pm 22.0 19.3 10.3 47 6.4 SSE 15 26 8 14 1015.7 1015.4 0.0
03/03:00pm 21.8 18.9 11.0 50 6.0 S 17 24 9 13 1016.1 1015.8 0.0
03/02:30pm 21.7 19.1 10.8 50 6.0 SSW 15 24 8 13 1016.4 1016.2 0.0
03/02:00pm 20.7 17.7 10.7 52 5.5 SE 17 24 9 13 1016.7 1016.5 0.0

Latest Capital City Observations: Canberra | Sydney | Melbourne | Brisbane | Adelaide | Perth | Hobart | Darwin

Other Formats:

Comma delimited format used in spreadsheet applications
http://www.bom.gov.au/fwo/IDV60901/IDV60901.94866.axf

JavaScript Object Notation format (JSON) in row-major order
http://www.bom.gov.au/fwo/IDV60901/IDV60901.94866.json